Airfield :
LOGIN :

Register | Disclaimer

   EN    FR    IT 

 










Legend :    VFR   Marginal VFR   IFR   Intensive IFR   Very Intensive IFR
Visi :
Ceiling :
>= 8 km
>= 3000ft
5 to 8 km
1000 to 3000 ft
1500m to 5 km
500 to 1000 ft
800 to 1500m
200 to 500 ft
< 800m
< 200 ft
Symbols :   Thunderstorms  Fog  Heavy snow  Heavy precipitations  Wind > 20 kt
SIGMETs :     Misc.  Thunderstorms  Icing  Turbulence  Mountain Waves  Volcanic Ashes






- Airport Elevation : 65 ft
- IATA code : PIK


EGPK - Glasgow Prestwick

CURRENT METAR :
  • 172050Z 13004KT CAVOK 02/02 Q1036

EXPIRED METARs :
  • 172020Z 15004KT CAVOK 02/01 Q1036
  • 171950Z 11003KT CAVOK 02/01 Q1036
  • 171920Z 14004KT CAVOK 02/01 Q1036

TAF TAF EGPK
Valid from the 17 at 18:00 until the 18 at 18:00 UTC


171655Z 1718/1818 21006KT 9999 SCT016
PROB40
TEMPO 1718/1815 BKN014
BECMG 1812/1815 19015G28KT
TEMPO 1815/1818 BKN012
PROB30
TEMPO 1815/1818 6000 RA BKN008



MET'MAP, your aeronautical weather chart ! - Copyright ORBIFLY December 2007 - Disclaimer

ORBIFLY MET'MAP TEAM :

Programming & Development : Alexandra Zaïnal
Concept & original design : Baudouin d'Aumeries
Assistance for programming : Marc-Olivier Méhu
Technical & hardware support : Manuel Goepfert

Contact : metmap@orbifly.com




SOURCES & CREDITS :

   NOAA